MAPA DE AEROPUERTO

INFORMACIÓN METAR y TAF

METAR FOR GCGM
ADDS - METARS form results

(1630 UTC 23 October 2021)
Data provider http://aviationweather.gov/metar/data/
 
METAR text: GCGM 231600Z VRB08KT 9999 FEW020 SCT035 23/14 Q1019 RMK R09/VRB05KT ARP/06005KT 350V150
Conditions at: GCGM (LA GOMERA ARPT , ES) observed 1600 UTC 23 October 2021
Temperature: 23.0°C (73°F)
Dewpoint: 14.0°C (57°F) [RH = 57%]
Pressure (altimeter): 30.09 inches Hg (1019.0 mb)
Winds: variable direction winds at 9 MPH (8 knots; 4.1 m/s)
Visibility: 6 or more miles (10+ km)
Ceiling: at least 12,000 feet AGL
Clouds: few clouds at 2000 feet AGL
scattered clouds at 3500 feet AGL
Weather: no significant weather observed at this time

Forecast for: GCGM (LA GOMERA ARPT , ES)
Text: TAF GCGM 231400Z 2315/2415 VRB06KT 9999 SCT025 TX25/2414Z TN21/2406Z
Forecast period: 1500 UTC 23 October 2021 to 1500 UTC 24 October 2021
Forecast type: FROM: standard forecast or significant change
Winds: variable direction winds at 7 MPH (6 knots; 3.1 m/s)
Visibility: 6 or more miles (10+ km)
Ceiling: at least 12,000 feet AGL
Clouds: scattered clouds at 2500 feet AGL
Weather: no significant weather forecast for this period